sensor_id;sensor_type;location;lat;lon;timestamp;temperature;humidity
9845;DHT22;4961;50.782;6.080;2022-08-11T00:02:29;21.60;99.90
9845;DHT22;4961;50.782;6.080;2022-08-11T00:05:03;21.60;99.90
9845;DHT22;4961;50.782;6.080;2022-08-11T00:07:34;21.50;99.90
9845;DHT22;4961;50.782;6.080;2022-08-11T00:10:12;21.50;99.90
9845;DHT22;4961;50.782;6.080;2022-08-11T00:12:42;21.50;99.90
9845;DHT22;4961;50.782;6.080;2022-08-11T00:15:11;21.40;99.90
9845;DHT22;4961;50.782;6.080;2022-08-11T00:17:40;21.40;99.90
9845;DHT22;4961;50.782;6.080;2022-08-11T00:20:11;21.30;99.90
9845;DHT22;4961;50.782;6.080;2022-08-11T00:22:45;21.30;99.90
9845;DHT22;4961;50.782;6.080;2022-08-11T00:25:18;21.30;99.90
9845;DHT22;4961;50.782;6.080;2022-08-11T00:27:47;21.20;99.90
9845;DHT22;4961;50.782;6.080;2022-08-11T00:30:16;21.20;99.90
9845;DHT22;4961;50.782;6.080;2022-08-11T00:32:53;21.10;99.90
9845;DHT22;4961;50.782;6.080;2022-08-11T00:35:26;21.10;99.90
9845;DHT22;4961;50.782;6.080;2022-08-11T00:38:16;21.10;99.90
9845;DHT22;4961;50.782;6.080;2022-08-11T00:40:54;21.10;99.90
9845;DHT22;4961;50.782;6.080;2022-08-11T00:43:37;21.10;99.90
9845;DHT22;4961;50.782;6.080;2022-08-11T00:46:19;21.00;99.90
9845;DHT22;4961;50.782;6.080;2022-08-11T00:49:07;21.00;99.90
9845;DHT22;4961;50.782;6.080;2022-08-11T00:51:51;20.90;99.90
9845;DHT22;4961;50.782;6.080;2022-08-11T00:54:49;20.90;99.90
9845;DHT22;4961;50.782;6.080;2022-08-11T01:01:01;20.90;99.90
9845;DHT22;4961;50.782;6.080;2022-08-11T01:03:52;20.80;99.90
9845;DHT22;4961;50.782;6.080;2022-08-11T01:06:42;20.70;99.90
9845;DHT22;4961;50.782;6.080;2022-08-11T01:09:27;20.70;99.90
9845;DHT22;4961;50.782;6.080;2022-08-11T01:12:14;20.70;99.90
9845;DHT22;4961;50.782;6.080;2022-08-11T22:03:36;23.50;94.80
9845;DHT22;4961;50.782;6.080;2022-08-11T22:06:28;23.50;95.40
9845;DHT22;4961;50.782;6.080;2022-08-11T22:09:16;23.40;96.00
9845;DHT22;4961;50.782;6.080;2022-08-11T22:12:03;23.40;97.00
9845;DHT22;4961;50.782;6.080;2022-08-11T22:15:08;23.40;97.70
9845;DHT22;4961;50.782;6.080;2022-08-11T22:17:55;23.30;98.20
9845;DHT22;4961;50.782;6.080;2022-08-11T22:20:43;23.30;98.40
9845;DHT22;4961;50.782;6.080;2022-08-11T22:23:32;23.20;98.90
9845;DHT22;4961;50.782;6.080;2022-08-11T22:26:22;23.20;99.10
9845;DHT22;4961;50.782;6.080;2022-08-11T22:29:13;23.20;99.00
9845;DHT22;4961;50.782;6.080;2022-08-11T22:32:16;23.10;99.00
9845;DHT22;4961;50.782;6.080;2022-08-11T22:35:04;23.10;99.50
9845;DHT22;4961;50.782;6.080;2022-08-11T22:37:56;23.10;99.60
9845;DHT22;4961;50.782;6.080;2022-08-11T22:40:43;23.00;99.30
9845;DHT22;4961;50.782;6.080;2022-08-11T22:43:30;23.00;99.80
9845;DHT22;4961;50.782;6.080;2022-08-11T22:46:17;22.90;99.90
9845;DHT22;4961;50.782;6.080;2022-08-11T22:49:05;22.90;99.90
9845;DHT22;4961;50.782;6.080;2022-08-11T22:51:52;22.80;99.90
9845;DHT22;4961;50.782;6.080;2022-08-11T22:54:44;22.80;99.90
9845;DHT22;4961;50.782;6.080;2022-08-11T22:57:35;22.80;99.90
9845;DHT22;4961;50.782;6.080;2022-08-11T23:00:27;22.70;99.90
9845;DHT22;4961;50.782;6.080;2022-08-11T23:03:13;22.80;99.90
9845;DHT22;4961;50.782;6.080;2022-08-11T23:06:04;22.70;99.90
9845;DHT22;4961;50.782;6.080;2022-08-11T23:08:51;22.70;99.90
9845;DHT22;4961;50.782;6.080;2022-08-11T23:11:39;22.70;99.90
9845;DHT22;4961;50.782;6.080;2022-08-11T23:14:37;22.60;99.90
9845;DHT22;4961;50.782;6.080;2022-08-11T23:17:25;22.50;99.90
9845;DHT22;4961;50.782;6.080;2022-08-11T23:20:14;22.50;99.90
9845;DHT22;4961;50.782;6.080;2022-08-11T23:26:41;22.40;99.90
9845;DHT22;4961;50.782;6.080;2022-08-11T23:29:28;22.30;99.90
9845;DHT22;4961;50.782;6.080;2022-08-11T23:32:17;22.30;99.90
9845;DHT22;4961;50.782;6.080;2022-08-11T23:35:05;22.20;99.90
9845;DHT22;4961;50.782;6.080;2022-08-11T23:38:12;22.30;99.90
9845;DHT22;4961;50.782;6.080;2022-08-11T23:40:58;22.30;99.90
9845;DHT22;4961;50.782;6.080;2022-08-11T23:43:47;22.20;99.90
9845;DHT22;4961;50.782;6.080;2022-08-11T23:46:33;22.20;99.90
9845;DHT22;4961;50.782;6.080;2022-08-11T23:49:19;22.20;99.90
9845;DHT22;4961;50.782;6.080;2022-08-11T23:52:07;22.20;99.90
9845;DHT22;4961;50.782;6.080;2022-08-11T23:54:53;22.10;99.90
9845;DHT22;4961;50.782;6.080;2022-08-11T23:57:39;22.10;99.90
